Time;durP1;ratioP1;P1;durP2;ratioP2;P2;SDS_P1;SDS_P2;PMS_P1;PMS_P2;Temp;Humidity;BMP_temperature;BMP_pressure;BME280_temperature;BME280_humidity;BME280_pressure;Samples;Min_cycle;Max_cycle;Signal;HPM_P1;HPM_P2
2022/10/25 00:01:45;;;;;;;5.70;1.80;;;14.20;90.20;;;;;;5094108;28;20529;-75
2022/10/25 00:04:12;;;;;;;4.18;1.65;;;14.20;90.30;;;;;;5055746;28;20425;-75
2022/10/25 00:06:38;;;;;;;5.18;2.20;;;14.20;90.10;;;;;;5052289;28;20456;-76
2022/10/25 00:09:05;;;;;;;3.13;1.90;;;14.20;90.60;;;;;;5051104;28;20429;-77
2022/10/25 00:11:33;;;;;;;5.95;2.33;;;14.10;90.60;;;;;;5054158;28;20417;-77
2022/10/25 00:14:03;;;;;;;3.57;1.67;;;14.10;90.90;;;;;;5051981;28;20487;-74
2022/10/25 00:16:32;;;;;;;6.30;1.95;;;14.10;90.60;;;;;;5052617;28;20417;-76
2022/10/25 00:18:58;;;;;;;4.78;2.20;;;14.10;90.50;;;;;;5050543;28;20440;-76
2022/10/25 00:21:26;;;;;;;4.93;1.98;;;14.10;90.50;;;;;;5052437;28;20425;-76
2022/10/25 00:23:53;;;;;;;5.18;1.88;;;14.10;90.80;;;;;;5050532;28;20438;-78
2022/10/25 00:26:21;;;;;;;4.85;1.80;;;14.00;90.90;;;;;;5051883;28;20433;-77
2022/10/25 00:28:48;;;;;;;4.43;2.15;;;14.00;90.90;;;;;;5063202;28;20427;-75
2022/10/25 00:31:17;;;;;;;4.57;1.83;;;14.00;90.90;;;;;;5074238;28;20435;-75
2022/10/25 00:33:44;;;;;;;3.22;1.50;;;14.00;90.90;;;;;;5079693;28;20418;-76
2022/10/25 00:36:13;;;;;;;4.38;1.52;;;13.90;90.90;;;;;;5079901;28;20402;-77
2022/10/25 00:38:41;;;;;;;4.47;1.60;;;13.90;90.90;;;;;;5074072;28;20428;-75
2022/10/25 00:41:08;;;;;;;4.65;1.70;;;14.00;90.90;;;;;;5074353;28;20425;-76
2022/10/25 00:43:38;;;;;;;3.83;1.70;;;13.90;91.10;;;;;;5074476;28;20956;-75
2022/10/25 00:46:10;;;;;;;4.18;1.73;;;13.90;91.20;;;;;;5083441;28;20429;-75
2022/10/25 00:48:38;;;;;;;3.75;1.90;;;13.80;91.20;;;;;;5065137;28;20439;-75
2022/10/25 00:51:06;;;;;;;5.68;1.90;;;13.90;91.60;;;;;;5050283;28;20429;-76
2022/10/25 00:53:36;;;;;;;4.78;1.80;;;13.80;91.40;;;;;;5050869;28;20417;-75
2022/10/25 00:56:09;;;;;;;4.35;1.80;;;13.90;91.20;;;;;;5052667;28;20438;-76
2022/10/25 00:58:38;;;;;;;3.95;1.60;;;13.90;91.10;;;;;;5050293;28;20895;-77
2022/10/25 01:01:08;;;;;;;4.83;1.57;;;13.90;91.30;;;;;;5051522;28;20417;-76
2022/10/25 01:03:36;;;;;;;5.30;1.85;;;13.90;91.50;;;;;;5051295;28;20433;-76
2022/10/25 01:06:07;;;;;;;5.10;2.10;;;13.80;91.60;;;;;;5050606;28;20440;-75
2022/10/25 01:08:34;;;;;;;5.45;1.63;;;13.80;91.60;;;;;;5050720;28;20456;-75
2022/10/25 01:11:01;;;;;;;4.47;1.85;;;13.80;91.50;;;;;;5048998;28;20440;-75
2022/10/25 01:13:27;;;;;;;4.82;1.50;;;13.80;91.70;;;;;;5049294;28;20455;-76
2022/10/25 01:16:06;;;;;;;6.38;2.10;;;13.80;91.70;;;;;;5049166;28;20417;-76
2022/10/25 01:18:42;;;;;;;3.92;1.50;;;13.80;91.60;;;;;;5053728;28;20404;-76
2022/10/25 01:21:37;;;;;;;3.80;1.80;;;13.80;91.40;;;;;;5064569;28;20525;-76
2022/10/25 01:24:32;;;;;;;4.93;1.80;;;13.80;91.70;;;;;;5061548;28;20422;-76
2022/10/25 01:27:20;;;;;;;4.43;1.90;;;13.70;91.70;;;;;;5074798;28;20422;-73
2022/10/25 01:30:05;;;;;;;2.72;1.50;;;13.70;91.80;;;;;;5078425;28;20415;-76
2022/10/25 01:32:41;;;;;;;4.00;1.90;;;13.70;91.90;;;;;;5049145;28;20440;-76
2022/10/25 01:35:17;;;;;;;3.20;1.77;;;13.70;91.80;;;;;;5052543;28;20433;-76
2022/10/25 01:37:56;;;;;;;2.97;1.90;;;13.70;92.10;;;;;;5045728;28;20417;-77
2022/10/25 01:40:28;;;;;;;4.65;2.03;;;13.70;92.10;;;;;;5049284;28;20433;-75
2022/10/25 01:43:03;;;;;;;4.60;1.90;;;13.60;92.00;;;;;;5046352;28;20533;-77
2022/10/25 01:45:35;;;;;;;3.10;1.67;;;13.70;91.90;;;;;;5043808;28;20426;-75
2022/10/25 01:48:09;;;;;;;2.95;1.70;;;13.70;91.90;;;;;;5048430;28;20436;-75
2022/10/25 01:50:39;;;;;;;4.68;1.95;;;13.70;91.80;;;;;;5049524;28;20413;-75
2022/10/25 01:53:06;;;;;;;3.92;2.00;;;13.70;91.70;;;;;;5046146;28;20887;-76
2022/10/25 01:55:39;;;;;;;4.20;1.73;;;13.70;91.70;;;;;;5048752;28;20495;-76
2022/10/25 01:58:21;;;;;;;4.28;2.10;;;13.60;92.00;;;;;;5048615;28;20412;-75
2022/10/25 02:00:54;;;;;;;4.22;1.80;;;13.60;92.10;;;;;;5049360;28;20425;-75
2022/10/25 02:03:31;;;;;;;4.70;1.67;;;13.60;92.10;;;;;;5048927;28;20445;-75
2022/10/25 02:06:09;;;;;;;5.60;1.92;;;13.60;92.30;;;;;;5045088;28;20902;-75
2022/10/25 02:08:41;;;;;;;5.15;2.10;;;13.60;92.30;;;;;;5050957;28;21095;-77
2022/10/25 02:11:17;;;;;;;4.07;1.70;;;13.60;92.20;;;;;;5049141;28;20432;-75
2022/10/25 02:13:51;;;;;;;4.43;1.88;;;13.60;92.10;;;;;;5050336;28;21132;-74
2022/10/25 02:16:24;;;;;;;5.07;1.87;;;13.60;92.20;;;;;;5052926;28;20504;-75
2022/10/25 02:18:56;;;;;;;4.78;1.95;;;13.60;92.30;;;;;;5066758;28;20428;-75
2022/10/25 02:21:26;;;;;;;3.80;1.80;;;13.60;92.30;;;;;;5067628;28;20429;-75
2022/10/25 02:23:54;;;;;;;4.95;1.70;;;13.60;92.20;;;;;;5069197;28;20405;-74
2022/10/25 02:26:21;;;;;;;5.28;1.80;;;13.70;92.10;;;;;;5055949;28;20907;-75
2022/10/25 02:28:49;;;;;;;4.40;2.22;;;13.70;92.10;;;;;;5046640;28;20457;-76
2022/10/25 02:31:18;;;;;;;5.03;2.10;;;13.70;92.10;;;;;;5050251;28;20413;-77
2022/10/25 02:33:45;;;;;;;4.40;1.60;;;13.70;92.00;;;;;;5049045;28;20421;-76
2022/10/25 02:36:16;;;;;;;4.25;1.55;;;13.70;91.80;;;;;;5049011;28;20417;-77
2022/10/25 02:38:43;;;;;;;4.10;2.03;;;13.60;91.90;;;;;;5047718;28;21080;-77
2022/10/25 02:41:11;;;;;;;5.30;2.00;;;13.60;92.00;;;;;;5047352;28;20429;-76
2022/10/25 02:43:37;;;;;;;4.03;1.90;;;13.60;92.10;;;;;;5047844;28;20424;-75
2022/10/25 02:46:09;;;;;;;4.50;1.92;;;13.60;91.90;;;;;;5080859;28;20875;-75
2022/10/25 02:48:36;;;;;;;4.25;1.60;;;13.60;92.30;;;;;;5069256;28;20429;-75
2022/10/25 02:51:03;;;;;;;3.63;1.50;;;13.50;92.30;;;;;;5065205;28;20413;-76
2022/10/25 02:53:31;;;;;;;4.25;1.60;;;13.50;92.20;;;;;;5062870;28;20444;-75
2022/10/25 02:56:02;;;;;;;4.85;1.60;;;13.50;92.10;;;;;;5062088;28;20409;-73
2022/10/25 02:58:33;;;;;;;5.00;1.70;;;13.60;92.50;;;;;;5058262;28;20417;-76
2022/10/25 03:01:00;;;;;;;4.22;2.00;;;13.50;92.10;;;;;;5048521;28;20895;-76
2022/10/25 03:03:28;;;;;;;3.80;1.70;;;13.50;92.40;;;;;;5047290;28;20417;-75
2022/10/25 03:05:55;;;;;;;7.25;1.92;;;13.50;92.30;;;;;;5048420;28;20417;-76
2022/10/25 03:08:22;;;;;;;4.30;1.70;;;13.50;92.20;;;;;;5048188;28;20456;-76
2022/10/25 03:10:51;;;;;;;5.57;2.10;;;13.50;92.30;;;;;;5047188;28;20425;-76
2022/10/25 03:13:18;;;;;;;3.95;1.73;;;13.40;92.50;;;;;;5041618;28;20421;-76
2022/10/25 03:15:46;;;;;;;3.92;2.00;;;13.50;92.50;;;;;;5048670;28;20417;-75
2022/10/25 03:18:13;;;;;;;4.30;1.80;;;13.50;92.50;;;;;;5048140;28;20417;-74
2022/10/25 03:20:41;;;;;;;4.38;2.03;;;13.50;92.50;;;;;;5048260;28;20413;-76
2022/10/25 03:23:09;;;;;;;4.18;1.60;;;13.50;92.60;;;;;;5048218;28;20421;-75
2022/10/25 03:25:36;;;;;;;3.88;1.80;;;13.50;92.60;;;;;;5044057;28;20433;-75
2022/10/25 03:28:04;;;;;;;4.50;2.05;;;13.50;92.60;;;;;;5036164;28;21081;-75
2022/10/25 03:30:31;;;;;;;4.97;1.80;;;13.50;92.70;;;;;;5047375;28;20444;-77
2022/10/25 03:32:58;;;;;;;3.50;1.60;;;13.50;92.60;;;;;;5046408;28;20448;-76
2022/10/25 03:35:26;;;;;;;3.72;1.80;;;13.50;92.50;;;;;;5047779;28;20436;-76
2022/10/25 03:37:53;;;;;;;3.63;1.90;;;13.60;92.30;;;;;;5047823;28;20524;-76
2022/10/25 03:40:21;;;;;;;4.00;1.92;;;13.60;92.10;;;;;;5046712;28;20433;-76
2022/10/25 03:42:47;;;;;;;4.95;2.00;;;13.60;92.20;;;;;;5047760;28;20417;-75
2022/10/25 03:45:16;;;;;;;2.92;1.52;;;13.60;92.40;;;;;;5048198;28;20417;-76
2022/10/25 03:47:42;;;;;;;3.38;1.83;;;13.50;92.40;;;;;;5050059;28;20429;-76
2022/10/25 03:50:09;;;;;;;5.18;1.92;;;13.50;92.50;;;;;;5048406;28;20416;-76
2022/10/25 03:52:36;;;;;;;5.40;1.90;;;13.60;92.40;;;;;;5050065;28;20420;-76
2022/10/25 03:55:04;;;;;;;4.30;2.27;;;13.50;93.10;;;;;;5055061;28;20458;-74
2022/10/25 03:57:30;;;;;;;4.15;1.73;;;13.50;93.10;;;;;;5047873;28;20425;-76
2022/10/25 03:59:58;;;;;;;4.60;2.10;;;13.50;92.80;;;;;;5047808;28;20424;-76
2022/10/25 04:02:27;;;;;;;6.35;1.90;;;13.50;93.20;;;;;;5047696;28;20431;-75
2022/10/25 04:04:54;;;;;;;3.55;1.92;;;13.50;92.90;;;;;;5048296;28;20919;-78
2022/10/25 04:07:21;;;;;;;4.20;2.17;;;13.50;92.90;;;;;;5051581;28;20422;-77
2022/10/25 04:09:47;;;;;;;3.50;1.95;;;13.50;93.20;;;;;;5046401;28;20433;-77
2022/10/25 04:12:14;;;;;;;4.55;2.30;;;13.50;94.00;;;;;;5038976;28;20433;-77
2022/10/25 04:14:41;;;;;;;7.70;4.07;;;13.40;94.10;;;;;;5059630;28;20415;-76
2022/10/25 04:17:08;;;;;;;6.03;4.97;;;13.40;94.70;;;;;;5052260;28;20425;-77
2022/10/25 04:19:36;;;;;;;8.40;4.70;;;13.40;95.40;;;;;;5070856;28;20433;-76
2022/10/25 04:22:04;;;;;;;5.97;3.30;;;13.30;96.00;;;;;;5069567;28;20514;-78
2022/10/25 04:24:30;;;;;;;6.75;3.58;;;13.40;95.90;;;;;;5055828;28;20432;-77
2022/10/25 04:26:57;;;;;;;6.00;3.65;;;13.30;96.00;;;;;;5050256;28;20447;-75
2022/10/25 04:29:24;;;;;;;6.93;3.33;;;13.40;96.60;;;;;;5049639;28;20926;-76
2022/10/25 04:31:51;;;;;;;9.38;4.25;;;13.30;97.50;;;;;;5052954;28;20433;-75
2022/10/25 04:34:18;;;;;;;7.15;3.90;;;13.20;97.50;;;;;;5086512;22;20442;-62
2022/10/25 04:36:46;;;;;;;9.13;3.20;;;13.10;98.10;;;;;;5066285;28;20428;-63
2022/10/25 04:39:12;;;;;;;5.50;3.00;;;13.00;99.10;;;;;;5068298;28;20423;-64
2022/10/25 04:41:39;;;;;;;5.03;3.38;;;12.90;99.40;;;;;;5070147;28;20415;-64
2022/10/25 04:44:06;;;;;;;6.40;3.17;;;12.90;99.80;;;;;;5069521;28;20423;-64
2022/10/25 04:46:33;;;;;;;6.53;3.40;;;12.90;99.90;;;;;;5070134;28;20991;-64
2022/10/25 04:48:59;;;;;;;8.35;3.08;;;12.90;99.90;;;;;;5070314;28;20435;-64
2022/10/25 04:51:26;;;;;;;7.00;3.50;;;12.90;99.90;;;;;;5069010;28;20431;-64
2022/10/25 04:53:55;;;;;;;5.55;2.97;;;12.80;99.90;;;;;;5061988;28;20427;-63
2022/10/25 04:56:23;;;;;;;7.25;3.10;;;12.80;99.90;;;;;;5067665;28;20921;-63
2022/10/25 04:58:49;;;;;;;7.90;3.80;;;12.80;99.90;;;;;;5063746;28;20438;-63
2022/10/25 05:01:17;;;;;;;6.80;3.42;;;12.90;99.90;;;;;;5064048;28;20427;-65
2022/10/25 05:03:44;;;;;;;6.45;3.35;;;12.80;99.90;;;;;;5068080;28;20802;-63
2022/10/25 05:06:13;;;;;;;5.38;3.67;;;12.80;99.90;;;;;;5065941;28;20929;-63
2022/10/25 05:08:42;;;;;;;6.82;3.50;;;12.90;99.90;;;;;;5067700;28;20937;-63
2022/10/25 05:11:11;;;;;;;7.13;3.50;;;12.90;99.90;;;;;;5065413;28;22196;-63
2022/10/25 05:13:40;;;;;;;5.97;3.30;;;12.90;99.90;;;;;;5066107;28;20498;-62
2022/10/25 05:16:09;;;;;;;6.55;3.95;;;12.90;99.90;;;;;;5067623;28;20438;-62
2022/10/25 05:18:35;;;;;;;7.53;4.20;;;12.90;99.90;;;;;;5067829;28;20907;-62
2022/10/25 05:21:04;;;;;;;6.65;4.35;;;12.80;99.90;;;;;;5060389;28;20431;-63
2022/10/25 05:23:33;;;;;;;6.80;4.30;;;12.80;99.90;;;;;;5068233;28;20794;-63
2022/10/25 05:26:04;;;;;;;7.25;4.78;;;12.80;99.90;;;;;;5068340;28;20438;-62
2022/10/25 05:28:32;;;;;;;7.03;4.00;;;12.80;99.90;;;;;;5062126;28;20431;-63
2022/10/25 05:31:03;;;;;;;6.63;3.90;;;12.80;99.90;;;;;;5066784;28;20427;-63
2022/10/25 05:33:30;;;;;;;5.80;4.17;;;12.80;99.90;;;;;;5067329;28;20485;-63
2022/10/25 05:35:58;;;;;;;7.10;4.33;;;12.80;99.90;;;;;;5067464;28;20462;-62
2022/10/25 05:38:25;;;;;;;8.13;4.10;;;12.80;99.90;;;;;;5067075;28;20423;-63
2022/10/25 05:40:55;;;;;;;6.97;3.58;;;12.70;99.90;;;;;;5067743;28;20431;-63
2022/10/25 05:43:22;;;;;;;8.77;3.70;;;12.70;99.90;;;;;;5065732;28;20478;-63
2022/10/25 05:45:52;;;;;;;5.50;3.60;;;12.70;99.90;;;;;;5066700;28;20428;-63
2022/10/25 05:48:19;;;;;;;10.30;4.60;;;12.70;99.90;;;;;;5061447;28;20423;-64
2022/10/25 05:50:46;;;;;;;8.20;4.33;;;12.70;99.90;;;;;;5066076;28;20431;-63
2022/10/25 05:53:13;;;;;;;9.50;4.00;;;12.60;99.90;;;;;;5066244;28;20436;-63
2022/10/25 05:55:40;;;;;;;8.60;4.00;;;12.60;99.90;;;;;;5067968;28;20438;-63
2022/10/25 05:58:06;;;;;;;8.65;4.03;;;12.60;99.90;;;;;;5067762;28;20415;-63
2022/10/25 06:00:33;;;;;;;7.15;4.30;;;12.60;99.90;;;;;;5065346;28;20447;-63
2022/10/25 06:03:02;;;;;;;7.22;4.40;;;12.60;99.90;;;;;;5068593;28;20798;-63
2022/10/25 06:05:28;;;;;;;7.85;4.47;;;12.60;99.90;;;;;;5066873;28;20443;-63
2022/10/25 06:07:55;;;;;;;8.85;5.45;;;12.60;99.90;;;;;;5066571;28;20470;-64
2022/10/25 06:10:22;;;;;;;10.60;4.90;;;12.50;99.90;;;;;;5067302;28;20506;-63
2022/10/25 06:12:49;;;;;;;11.20;5.23;;;12.50;99.90;;;;;;5066797;28;20427;-63
2022/10/25 06:15:16;;;;;;;8.33;5.10;;;12.50;99.90;;;;;;5066647;28;20439;-63
2022/10/25 06:17:42;;;;;;;9.05;5.10;;;12.50;99.90;;;;;;5066645;28;20961;-63
2022/10/25 06:20:11;;;;;;;7.85;5.20;;;12.50;99.90;;;;;;5065258;28;20427;-68
2022/10/25 06:22:37;;;;;;;7.93;4.90;;;12.50;99.90;;;;;;5063826;28;20435;-63
2022/10/25 06:25:05;;;;;;;9.85;5.28;;;12.40;99.90;;;;;;5061162;28;20435;-63
2022/10/25 06:27:32;;;;;;;7.30;4.80;;;12.50;99.90;;;;;;5066146;28;20423;-63
2022/10/25 06:29:58;;;;;;;9.60;5.13;;;12.50;99.90;;;;;;5067991;28;20432;-63
2022/10/25 06:32:25;;;;;;;8.20;6.00;;;12.50;99.90;;;;;;5061701;28;20438;-63
2022/10/25 06:34:52;;;;;;;10.70;5.80;;;12.50;99.90;;;;;;5070023;28;20415;-62
2022/10/25 06:37:20;;;;;;;10.15;5.60;;;12.50;99.90;;;;;;5066990;28;20422;-64
2022/10/25 06:39:47;;;;;;;11.48;5.93;;;12.50;99.90;;;;;;5067410;28;20465;-63
2022/10/25 06:42:13;;;;;;;9.27;5.20;;;12.50;99.90;;;;;;5061366;28;20454;-63
2022/10/25 06:44:40;;;;;;;7.45;4.30;;;12.60;99.90;;;;;;5067894;28;20412;-63
2022/10/25 06:47:07;;;;;;;5.75;4.00;;;12.60;99.90;;;;;;5067649;28;20758;-64
2022/10/25 06:49:34;;;;;;;7.90;4.95;;;12.70;99.90;;;;;;5065905;28;20435;-63
2022/10/25 06:52:00;;;;;;;10.05;5.13;;;12.70;99.90;;;;;;5063161;28;20441;-63
2022/10/25 06:54:28;;;;;;;8.95;5.13;;;12.70;99.90;;;;;;5067454;28;20415;-63
2022/10/25 06:56:57;;;;;;;6.88;4.88;;;12.70;99.90;;;;;;5065130;28;20423;-63
2022/10/25 06:59:24;;;;;;;9.23;4.50;;;12.80;99.90;;;;;;5067662;28;20415;-64
2022/10/25 07:01:51;;;;;;;8.25;4.50;;;12.80;99.90;;;;;;5062384;28;20427;-62
2022/10/25 07:04:18;;;;;;;7.63;4.53;;;12.80;99.90;;;;;;5064126;28;20440;-63
2022/10/25 07:06:44;;;;;;;6.53;3.50;;;12.90;99.90;;;;;;5063796;28;20424;-63
2022/10/25 07:09:12;;;;;;;8.90;4.80;;;12.90;99.90;;;;;;5060930;28;20928;-63
2022/10/25 07:11:40;;;;;;;8.15;4.50;;;12.90;99.90;;;;;;5064927;28;20485;-63
2022/10/25 07:14:06;;;;;;;7.07;3.88;;;12.90;99.90;;;;;;5059430;28;20439;-63
2022/10/25 07:16:33;;;;;;;10.88;4.75;;;13.00;99.90;;;;;;5058335;28;20429;-63
2022/10/25 07:19:01;;;;;;;5.28;4.28;;;13.00;99.90;;;;;;5065061;28;20427;-63
2022/10/25 07:21:29;;;;;;;8.23;4.45;;;13.00;99.90;;;;;;5064773;28;20435;-62
2022/10/25 07:23:56;;;;;;;7.80;4.60;;;13.10;99.90;;;;;;5060624;28;20435;-63
2022/10/25 07:26:25;;;;;;;8.60;5.30;;;13.20;99.90;;;;;;5063839;28;20436;-63
2022/10/25 07:28:56;;;;;;;9.52;5.35;;;13.30;99.90;;;;;;5067235;28;20455;-66
2022/10/25 07:31:25;;;;;;;8.70;4.60;;;13.30;99.90;;;;;;5063508;28;20462;-66
2022/10/25 07:33:53;;;;;;;9.20;4.82;;;13.30;99.90;;;;;;5061097;28;20963;-66
2022/10/25 07:36:21;;;;;;;7.55;4.70;;;13.30;99.90;;;;;;5063091;28;20435;-66
2022/10/25 07:38:47;;;;;;;8.60;4.82;;;13.30;99.90;;;;;;5058584;28;20443;-67
2022/10/25 07:41:14;;;;;;;6.18;4.40;;;13.40;99.90;;;;;;5065485;28;20433;-66
2022/10/25 07:43:41;;;;;;;7.90;4.30;;;13.40;99.90;;;;;;5066659;28;20427;-66
2022/10/25 07:46:10;;;;;;;7.38;4.32;;;13.40;99.90;;;;;;5063396;28;20435;-63
2022/10/25 07:48:36;;;;;;;5.50;4.00;;;13.50;99.90;;;;;;5064934;28;20438;-62
2022/10/25 07:51:04;;;;;;;7.47;4.40;;;13.50;99.90;;;;;;5068342;28;20943;-62
2022/10/25 07:53:31;;;;;;;8.48;4.85;;;13.50;99.90;;;;;;5070516;28;20419;-63
2022/10/25 07:55:58;;;;;;;7.63;3.80;;;13.50;99.90;;;;;;5070485;28;20427;-63
2022/10/25 07:58:25;;;;;;;7.45;4.43;;;13.50;99.40;;;;;;5071103;28;20416;-63
2022/10/25 08:00:52;;;;;;;6.70;4.10;;;13.50;99.10;;;;;;5069972;28;20427;-62
2022/10/25 08:03:20;;;;;;;7.55;3.97;;;13.50;98.90;;;;;;5070526;28;20407;-62
2022/10/25 08:05:48;;;;;;;9.18;4.40;;;13.60;98.70;;;;;;5069451;28;20435;-62
2022/10/25 08:08:15;;;;;;;6.75;3.70;;;13.70;98.80;;;;;;5082329;28;20421;-63
2022/10/25 08:10:43;;;;;;;6.95;3.92;;;13.80;99.00;;;;;;5072564;28;20421;-63
2022/10/25 08:13:10;;;;;;;6.93;4.20;;;13.80;98.70;;;;;;5064527;28;20460;-63
2022/10/25 08:15:39;;;;;;;8.15;4.45;;;13.90;98.50;;;;;;5068955;28;20786;-63
2022/10/25 08:18:08;;;;;;;5.78;3.83;;;14.00;98.50;;;;;;5070218;28;20415;-63
2022/10/25 08:20:36;;;;;;;8.68;3.58;;;14.10;98.70;;;;;;5064733;28;20834;-63
2022/10/25 08:23:03;;;;;;;6.93;3.78;;;14.30;98.70;;;;;;5069841;28;20420;-63
2022/10/25 08:25:29;;;;;;;7.38;3.50;;;14.50;97.90;;;;;;5085779;28;20417;-63
2022/10/25 08:27:56;;;;;;;5.65;3.80;;;14.70;96.30;;;;;;5062022;28;20753;-63
2022/10/25 08:30:23;;;;;;;6.57;3.83;;;14.80;95.70;;;;;;5070503;28;20951;-63
2022/10/25 08:32:51;;;;;;;7.00;3.75;;;14.80;95.70;;;;;;5069347;28;20438;-65
2022/10/25 08:35:17;;;;;;;5.57;3.30;;;14.90;96.00;;;;;;5069779;28;20435;-63
2022/10/25 08:37:46;;;;;;;6.82;4.22;;;14.80;95.10;;;;;;5066925;28;20411;-63
2022/10/25 08:40:18;;;;;;;7.67;4.50;;;14.90;95.30;;;;;;5070074;28;20456;-63
2022/10/25 08:43:00;;;;;;;8.48;4.40;;;14.90;95.10;;;;;;5068955;28;20427;-63
2022/10/25 08:45:36;;;;;;;7.70;4.50;;;15.00;95.80;;;;;;5068081;28;20419;-62
2022/10/25 08:48:04;;;;;;;7.80;4.20;;;14.90;95.00;;;;;;5068110;28;21098;-63
2022/10/25 08:50:37;;;;;;;6.65;3.53;;;15.00;95.20;;;;;;5068570;28;20427;-64
2022/10/25 08:53:08;;;;;;;4.10;2.63;;;15.10;94.70;;;;;;5066076;28;20411;-63
2022/10/25 08:55:37;;;;;;;3.83;2.25;;;15.20;93.90;;;;;;5068887;28;20427;-63
2022/10/25 08:58:12;;;;;;;5.75;2.50;;;15.30;92.20;;;;;;5070320;28;21486;-63
2022/10/25 09:00:40;;;;;;;4.63;2.55;;;15.40;92.20;;;;;;5069721;28;20435;-63
2022/10/25 09:03:14;;;;;;;4.10;2.08;;;15.40;91.90;;;;;;5068835;28;20901;-63
2022/10/25 09:05:42;;;;;;;4.55;2.20;;;15.50;90.80;;;;;;5068005;28;20434;-63
2022/10/25 09:08:40;;;;;;;4.93;2.10;;;15.50;90.60;;;;;;5072545;28;20909;-63
2022/10/25 09:11:17;;;;;;;5.90;2.27;;;15.60;90.70;;;;;;5074150;28;20495;-63
2022/10/25 09:13:50;;;;;;;5.30;2.38;;;15.70;90.70;;;;;;5077895;28;20419;-63
2022/10/25 09:16:19;;;;;;;6.30;2.38;;;15.90;89.60;;;;;;5069680;28;20455;-63
2022/10/25 09:18:49;;;;;;;5.32;2.40;;;16.10;90.30;;;;;;5069852;28;20419;-63
2022/10/25 09:21:19;;;;;;;5.85;3.17;;;16.20;88.60;;;;;;5059536;28;20425;-63
2022/10/25 09:23:57;;;;;;;5.43;3.60;;;16.30;87.70;;;;;;5067505;28;20431;-63
2022/10/25 09:26:39;;;;;;;6.37;3.60;;;16.30;86.70;;;;;;5062612;28;20465;-63
2022/10/25 09:29:23;;;;;;;5.20;3.65;;;16.30;85.90;;;;;;5070014;28;20840;-63
2022/10/25 09:31:53;;;;;;;6.38;3.45;;;16.30;87.10;;;;;;5070003;28;20852;-63
2022/10/25 09:34:22;;;;;;;5.15;3.28;;;16.30;87.50;;;;;;5065586;28;21067;-63
2022/10/25 09:36:53;;;;;;;8.10;3.70;;;16.40;85.60;;;;;;5069715;28;20424;-63
2022/10/25 09:39:24;;;;;;;5.50;2.80;;;16.40;85.90;;;;;;5068736;28;20423;-64
2022/10/25 09:41:53;;;;;;;4.60;2.30;;;16.50;86.40;;;;;;5066078;28;20439;-63
2022/10/25 09:44:32;;;;;;;4.95;2.33;;;16.50;83.40;;;;;;5068249;28;20420;-64
2022/10/25 09:47:08;;;;;;;5.60;2.33;;;16.60;83.60;;;;;;5066871;28;20435;-63
2022/10/25 09:49:40;;;;;;;3.40;1.80;;;16.70;84.10;;;;;;5064404;28;20431;-63
2022/10/25 09:52:15;;;;;;;4.68;1.60;;;16.80;81.80;;;;;;5067575;28;20442;-62
2022/10/25 09:54:49;;;;;;;3.00;1.60;;;16.90;81.30;;;;;;5062548;28;20428;-62
2022/10/25 09:57:16;;;;;;;4.40;1.70;;;16.90;81.80;;;;;;5061684;28;20415;-63
2022/10/25 09:59:43;;;;;;;3.90;1.50;;;16.90;80.80;;;;;;5065950;28;20423;-70
2022/10/25 10:02:15;;;;;;;3.80;1.77;;;16.80;80.40;;;;;;5064043;28;20930;-69
2022/10/25 10:04:42;;;;;;;5.07;1.70;;;16.70;80.80;;;;;;5059071;28;20436;-69
2022/10/25 10:07:17;;;;;;;5.07;2.10;;;16.60;81.80;;;;;;5062948;28;20442;-69
2022/10/25 10:09:46;;;;;;;4.50;1.70;;;16.40;81.80;;;;;;5063269;28;20440;-69
2022/10/25 10:12:20;;;;;;;3.97;2.20;;;16.30;83.40;;;;;;5063080;28;20438;-69
2022/10/25 10:14:53;;;;;;;2.75;2.10;;;16.20;84.70;;;;;;5064353;28;20424;-69
2022/10/25 10:17:21;;;;;;;5.40;2.20;;;16.10;85.30;;;;;;5063665;28;20439;-69
2022/10/25 10:20:08;;;;;;;5.03;1.50;;;16.10;85.10;;;;;;5059419;28;20424;-69
2022/10/25 10:22:37;;;;;;;2.55;1.50;;;16.10;84.30;;;;;;5063379;28;20913;-69
2022/10/25 10:25:13;;;;;;;4.45;2.13;;;16.10;83.40;;;;;;5067930;28;20407;-69
2022/10/25 10:27:41;;;;;;;4.50;2.00;;;16.10;84.50;;;;;;5067031;28;20810;-69
2022/10/25 10:30:09;;;;;;;4.20;1.93;;;16.10;85.70;;;;;;5064754;28;20433;-69
2022/10/25 10:32:37;;;;;;;4.47;1.92;;;16.20;84.90;;;;;;5063454;28;20431;-69
2022/10/25 10:35:07;;;;;;;4.03;1.93;;;16.30;84.30;;;;;;5063100;28;20430;-70
2022/10/25 10:37:34;;;;;;;2.88;1.60;;;16.30;82.20;;;;;;5066567;28;20439;-69
2022/10/25 10:40:03;;;;;;;3.30;1.40;;;16.30;82.80;;;;;;5061669;28;20435;-69
2022/10/25 10:42:36;;;;;;;5.22;1.80;;;16.40;83.90;;;;;;5066224;28;20436;-70
2022/10/25 10:45:18;;;;;;;3.75;1.30;;;16.50;81.80;;;;;;5065177;28;20444;-70
2022/10/25 10:47:56;;;;;;;2.50;1.73;;;16.50;82.40;;;;;;5060435;28;20439;-70
2022/10/25 10:50:27;;;;;;;3.72;1.60;;;16.50;82.30;;;;;;5064361;28;20899;-70
2022/10/25 10:52:58;;;;;;;3.58;1.60;;;16.60;79.90;;;;;;5062348;28;20587;-71
2022/10/25 10:55:28;;;;;;;4.00;1.50;;;16.50;79.90;;;;;;5063060;28;21090;-70
2022/10/25 10:58:02;;;;;;;6.13;1.55;;;16.50;80.50;;;;;;5064932;28;20431;-70
2022/10/25 11:00:31;;;;;;;2.88;1.30;;;16.50;80.30;;;;;;5066144;28;20435;-68
2022/10/25 11:02:58;;;;;;;3.28;1.40;;;16.60;80.00;;;;;;5063174;28;20431;-64
2022/10/25 11:05:26;;;;;;;3.28;1.30;;;16.70;80.50;;;;;;5063727;28;20443;-64
2022/10/25 11:07:56;;;;;;;3.53;1.27;;;16.70;79.30;;;;;;5060869;28;20798;-65
2022/10/25 11:10:31;;;;;;;3.25;1.20;;;16.80;78.60;;;;;;5066494;28;20511;-65
2022/10/25 11:13:14;;;;;;;3.13;1.30;;;16.80;77.40;;;;;;5068055;28;20794;-66
2022/10/25 11:16:04;;;;;;;2.63;1.10;;;16.80;76.20;;;;;;5067627;28;20507;-65
2022/10/25 11:18:40;;;;;;;3.22;1.10;;;16.80;76.70;;;;;;5059905;28;20437;-65
2022/10/25 11:21:17;;;;;;;4.18;1.38;;;16.90;75.70;;;;;;5067088;28;20415;-65
2022/10/25 11:26:23;;;;;;;4.40;1.40;;;17.10;77.60;;;;;;5058181;28;20525;-74
2022/10/25 11:28:59;;;;;;;2.97;1.45;;;17.30;75.30;;;;;;5050514;28;20782;-75
2022/10/25 11:31:39;;;;;;;3.75;1.20;;;17.60;75.60;;;;;;5057486;28;20428;-74
2022/10/25 11:34:14;;;;;;;4.57;1.13;;;17.90;73.20;;;;;;5062144;28;20432;-74
2022/10/25 11:36:53;;;;;;;3.78;0.85;;;18.00;69.40;;;;;;5075636;28;20467;-75
2022/10/25 11:39:34;;;;;;;2.53;1.20;;;17.90;70.40;;;;;;5066549;28;20431;-73
2022/10/25 11:42:11;;;;;;;2.70;1.20;;;18.00;70.30;;;;;;5083332;28;20412;-76
2022/10/25 11:45:14;;;;;;;3.55;1.30;;;17.80;69.90;;;;;;5088604;28;20512;-75
2022/10/25 11:47:50;;;;;;;2.92;1.30;;;17.60;70.40;;;;;;5066768;28;20427;-73
2022/10/25 11:50:27;;;;;;;3.70;1.20;;;17.60;71.00;;;;;;5063148;28;20434;-74
2022/10/25 11:53:18;;;;;;;3.70;1.00;;;17.60;70.00;;;;;;5068738;28;20423;-73
2022/10/25 11:55:49;;;;;;;3.85;1.00;;;17.60;71.40;;;;;;5066898;28;20450;-75
2022/10/25 11:58:34;;;;;;;2.80;1.20;;;17.60;68.90;;;;;;5072360;28;20434;-74
2022/10/25 12:01:13;;;;;;;3.22;1.30;;;17.50;69.70;;;;;;5069634;28;20518;-74
2022/10/25 12:03:55;;;;;;;4.82;1.50;;;17.50;70.20;;;;;;5066433;28;20428;-74
2022/10/25 12:06:27;;;;;;;3.43;1.20;;;17.50;71.60;;;;;;5075252;28;20412;-74
2022/10/25 12:09:03;;;;;;;3.38;1.30;;;17.50;71.70;;;;;;5096200;28;20434;-73
2022/10/25 12:11:33;;;;;;;2.80;1.10;;;17.50;71.50;;;;;;5068744;28;20942;-73
2022/10/25 12:14:07;;;;;;;3.25;1.35;;;17.60;71.40;;;;;;5079910;28;20429;-75
2022/10/25 12:16:37;;;;;;;3.55;1.40;;;17.70;69.40;;;;;;5065339;28;20453;-74
2022/10/25 12:19:11;;;;;;;3.30;1.00;;;17.70;70.80;;;;;;5066437;28;20431;-73
2022/10/25 12:21:42;;;;;;;3.08;1.30;;;17.70;71.00;;;;;;5076833;28;20418;-74
2022/10/25 12:24:19;;;;;;;3.50;1.25;;;17.70;69.60;;;;;;5061735;28;20941;-75
2022/10/25 12:26:47;;;;;;;3.00;1.30;;;17.70;70.30;;;;;;5064020;28;20951;-74
2022/10/25 12:29:19;;;;;;;2.53;1.20;;;17.60;71.20;;;;;;5067220;28;20436;-75
2022/10/25 12:31:53;;;;;;;3.63;1.20;;;17.70;71.00;;;;;;5068497;28;20908;-74
2022/10/25 12:34:26;;;;;;;2.60;1.50;;;17.80;68.70;;;;;;5068966;28;20437;-74
2022/10/25 12:36:56;;;;;;;3.60;1.00;;;17.80;69.90;;;;;;5083546;28;20416;-75
2022/10/25 12:39:25;;;;;;;3.80;1.23;;;17.80;70.40;;;;;;5074457;28;20949;-73
2022/10/25 12:41:56;;;;;;;1.83;0.88;;;17.80;68.20;;;;;;5068317;28;20427;-76
2022/10/25 12:44:46;;;;;;;2.65;0.93;;;17.90;68.60;;;;;;5069308;28;20436;-76
2022/10/25 12:47:29;;;;;;;2.60;0.90;;;17.90;69.30;;;;;;5070355;28;20427;-74
2022/10/25 12:50:37;;;;;;;2.55;0.98;;;17.80;66.00;;;;;;5081687;28;20442;-75
2022/10/25 12:53:44;;;;;;;2.00;0.80;;;18.30;66.90;;;;;;5045219;28;20415;-75
2022/10/25 12:56:25;;;;;;;2.08;0.80;;;18.60;66.20;;;;;;5074273;28;20416;-74
2022/10/25 12:59:03;;;;;;;1.55;0.60;;;18.70;65.10;;;;;;5072613;28;20781;-73
2022/10/25 13:01:53;;;;;;;3.13;0.90;;;18.60;63.40;;;;;;5071602;28;20929;-75
2022/10/25 13:04:35;;;;;;;2.80;0.80;;;18.60;64.40;;;;;;5073403;28;20510;-73
2022/10/25 13:07:04;;;;;;;2.30;0.90;;;18.80;62.60;;;;;;5070040;28;20412;-74